Airfield :
LOGIN :

Register | Disclaimer

   EN    FR    IT 

 










Legend :    VFR   Marginal VFR   IFR   Intensive IFR   Very Intensive IFR
Visi :
Ceiling :
>= 8 km
>= 3000ft
5 to 8 km
1000 to 3000 ft
1500m to 5 km
500 to 1000 ft
800 to 1500m
200 to 500 ft
< 800m
< 200 ft
Symbols :   Thunderstorms  Fog  Heavy snow  Heavy precipitations  Wind > 20 kt
SIGMETs :     Misc.  Thunderstorms  Icing  Turbulence  Mountain Waves  Volcanic Ashes






- Airport Elevation : 37 ft
- IATA code : FRO


ENFL - Florø

CURRENT METAR :
  • 200150Z AUTO 16026G37KT 9999NDV BKN035/// OVC100/// 06/00 Q0995

EXPIRED METARs :
  • 200120Z AUTO 16022KT 130V190 9999NDV BKN030/// BKN064/// OVC076/// 06/01 Q0996
  • 200050Z AUTO 15019KT 9999NDV -SHRA BKN024/// OVC035/// 05/02 Q0996
  • 200020Z AUTO 16023KT 9999NDV FEW019/// OVC027/// 06/01 Q0997
  • 192350Z AUTO 15021KT 9999NDV OVC026/// 06/01 Q0997
  • 192320Z AUTO 15021G33KT 9999NDV -SHRA OVC026/// 05/01 Q0997
  • 192250Z AUTO 14022KT 9999NDV OVC027/// 05/00 Q0998

TAF TAF ENFL
Valid from the 20 at 00:00 until the 20 at 09:00 UTC


192300Z 2000/2009 14022KT 9999 -RA FEW015 BKN025
BECMG 2000/2003 16028G38KT
TEMPO 2003/2009 4000 RA BKN009



MET'MAP, your aeronautical weather chart ! - Copyright ORBIFLY December 2007 - Disclaimer

ORBIFLY MET'MAP TEAM :

Programming & Development : Alexandra Zaïnal
Concept & original design : Baudouin d'Aumeries
Assistance for programming : Marc-Olivier Méhu
Technical & hardware support : Manuel Goepfert

Contact : metmap@orbifly.com




SOURCES & CREDITS :

   NOAA